Time;durP1;ratioP1;P1;durP2;ratioP2;P2;SDS_P1;SDS_P2;PMS_P1;PMS_P2;Temp;Humidity;BMP_temperature;BMP_pressure;BME280_temperature;BME280_humidity;BME280_pressure;Samples;Min_cycle;Max_cycle;Signal;HPM_P1;HPM_P2
2021/09/21 04:33:20;;;;;;;10.13;9.13;;;12.00;99.90;;;;;;4987230;28;20902;-80
2021/09/21 04:35:46;;;;;;;13.43;9.77;;;11.90;99.90;;;;;;4974263;28;20905;-80
2021/09/21 04:38:12;;;;;;;15.23;10.60;;;11.90;99.90;;;;;;4982281;28;20918;-80
2021/09/21 04:40:38;;;;;;;11.97;10.30;;;11.80;99.90;;;;;;4992127;28;20414;-77
2021/09/21 04:43:04;;;;;;;12.30;10.30;;;11.80;99.90;;;;;;4991832;28;20407;-77
2021/09/21 04:45:31;;;;;;;12.60;9.53;;;11.80;99.90;;;;;;4992214;28;20418;-76
2021/09/21 04:47:57;;;;;;;13.33;10.50;;;11.80;99.90;;;;;;4992256;28;20403;-77
2021/09/21 04:50:22;;;;;;;12.00;10.07;;;11.80;99.90;;;;;;4992102;28;21022;-76
2021/09/21 04:52:48;;;;;;;15.90;11.03;;;11.70;99.90;;;;;;4991960;28;20455;-78
2021/09/21 04:55:13;;;;;;;10.50;9.10;;;11.80;99.90;;;;;;4992260;28;20181;-77
2021/09/21 04:57:39;;;;;;;14.00;10.83;;;11.80;99.90;;;;;;4992281;28;20183;-77
2021/09/21 05:00:06;;;;;;;11.87;10.57;;;11.80;99.90;;;;;;4992078;28;20582;-77
2021/09/21 05:02:31;;;;;;;13.30;10.73;;;11.80;99.90;;;;;;4991746;28;20226;-77
2021/09/21 05:04:57;;;;;;;13.63;10.63;;;11.80;99.90;;;;;;4994048;28;20419;-78
2021/09/21 05:07:22;;;;;;;13.03;11.20;;;11.80;99.90;;;;;;4997765;28;20182;-79
2021/09/21 05:09:48;;;;;;;16.50;10.43;;;11.90;99.90;;;;;;4998787;28;20407;-79
2021/09/21 05:12:14;;;;;;;12.40;10.10;;;11.90;99.90;;;;;;4998141;28;20213;-78
2021/09/21 05:14:39;;;;;;;15.03;11.00;;;11.90;99.90;;;;;;4997974;28;20222;-80
2021/09/21 05:17:05;;;;;;;11.90;9.53;;;11.90;99.90;;;;;;4998209;28;20597;-79
2021/09/21 05:19:30;;;;;;;13.20;10.70;;;11.90;99.90;;;;;;4999040;28;20182;-79
2021/09/21 05:21:56;;;;;;;13.53;10.80;;;11.90;99.90;;;;;;4999121;28;20199;-79
2021/09/21 05:24:21;;;;;;;14.87;11.00;;;11.80;99.90;;;;;;4999016;28;20202;-78
2021/09/21 05:26:47;;;;;;;12.53;10.30;;;11.90;99.90;;;;;;4998397;28;20226;-79
2021/09/21 05:29:12;;;;;;;12.30;11.00;;;11.90;99.90;;;;;;4998408;28;20179;-79
2021/09/21 05:31:38;;;;;;;17.77;11.83;;;11.90;99.90;;;;;;4997826;28;20222;-79
2021/09/21 05:34:03;;;;;;;11.67;9.90;;;11.80;99.90;;;;;;4997909;28;20182;-79
2021/09/21 05:36:29;;;;;;;13.10;10.67;;;11.70;99.90;;;;;;4998499;28;20239;-78
2021/09/21 05:38:55;;;;;;;13.97;10.50;;;11.80;99.90;;;;;;4998693;28;20175;-78
2021/09/21 05:41:20;;;;;;;11.83;10.63;;;11.80;99.90;;;;;;4998385;28;20222;-79
2021/09/21 05:43:46;;;;;;;11.80;10.60;;;11.80;99.90;;;;;;4998255;28;20675;-79
2021/09/21 05:46:12;;;;;;;17.90;11.27;;;11.90;99.90;;;;;;4998478;28;20187;-79
2021/09/21 05:48:37;;;;;;;12.03;10.57;;;11.90;99.90;;;;;;4998037;28;20588;-78
2021/09/21 05:51:03;;;;;;;12.33;10.10;;;11.90;99.90;;;;;;4997159;28;20198;-77
2021/09/21 05:53:28;;;;;;;12.93;11.50;;;11.90;99.90;;;;;;4995153;28;20567;-77
2021/09/21 05:55:54;;;;;;;12.37;9.50;;;12.00;99.90;;;;;;4994830;28;20219;-77
2021/09/21 05:58:19;;;;;;;13.43;10.33;;;12.00;99.90;;;;;;4993756;28;20273;-77
2021/09/21 06:00:45;;;;;;;13.87;11.57;;;12.00;99.90;;;;;;4995251;28;20202;-76
2021/09/21 06:03:11;;;;;;;12.93;11.50;;;12.10;99.90;;;;;;4994498;28;20191;-76
2021/09/21 06:05:36;;;;;;;15.00;10.80;;;12.20;99.90;;;;;;4995342;28;20536;-75
2021/09/21 06:08:02;;;;;;;11.77;10.33;;;12.20;99.90;;;;;;4994861;28;20175;-81
2021/09/21 06:10:28;;;;;;;11.50;10.30;;;12.30;99.90;;;;;;4995137;28;20667;-76
2021/09/21 06:12:54;;;;;;;15.30;10.37;;;12.40;99.90;;;;;;5012172;28;20207;-76
2021/09/21 06:15:20;;;;;;;13.80;9.67;;;12.70;99.90;;;;;;4994952;28;20923;-77
2021/09/21 06:17:48;;;;;;;13.37;10.47;;;13.20;99.90;;;;;;4994591;28;20438;-73
2021/09/21 06:20:14;;;;;;;13.43;8.80;;;14.30;99.90;;;;;;4994736;28;20461;-77
2021/09/21 06:22:43;;;;;;;9.00;7.80;;;15.70;99.90;;;;;;4994472;28;20446;-77
2021/09/21 06:25:09;;;;;;;9.30;7.83;;;17.00;99.90;;;;;;4995213;28;20941;-76
2021/09/21 06:27:35;;;;;;;10.43;7.77;;;18.00;99.90;;;;;;4995151;28;20501;-77
2021/09/21 06:30:05;;;;;;;8.47;7.77;;;19.00;99.90;;;;;;4994827;28;20414;-75
2021/09/21 06:32:32;;;;;;;8.00;7.20;;;20.00;99.90;;;;;;4994080;28;20466;-77
2021/09/21 06:34:57;;;;;;;8.00;7.30;;;20.50;99.90;;;;;;4994677;28;20411;-77
2021/09/21 06:37:23;;;;;;;13.20;7.80;;;21.10;99.90;;;;;;4994514;28;20415;-77
2021/09/21 06:39:48;;;;;;;8.10;7.40;;;21.20;99.90;;;;;;4994311;28;20179;-76
2021/09/21 06:42:14;;;;;;;8.40;7.70;;;21.60;99.90;;;;;;4990934;28;20255;-78
2021/09/21 06:44:39;;;;;;;8.40;7.60;;;22.00;99.90;;;;;;4994124;28;20178;-76
2021/09/21 06:47:05;;;;;;;8.20;7.50;;;21.70;99.90;;;;;;4993979;28;20699;-77
2021/09/21 06:49:31;;;;;;;10.70;8.13;;;21.50;99.90;;;;;;4993735;28;20250;-76
2021/09/21 06:51:58;;;;;;;8.77;7.37;;;21.60;99.90;;;;;;4994092;28;20206;-77
2021/09/21 06:54:24;;;;;;;7.67;7.07;;;22.00;99.90;;;;;;4993852;28;20676;-77
2021/09/21 06:56:49;;;;;;;9.17;8.20;;;22.50;99.90;;;;;;4994195;28;20450;-77
2021/09/21 06:59:15;;;;;;;9.17;8.27;;;22.50;99.90;;;;;;4994003;28;20637;-77
2021/09/21 07:01:40;;;;;;;8.80;7.90;;;22.20;99.90;;;;;;4994695;28;20199;-77
2021/09/21 07:04:06;;;;;;;9.67;8.70;;;22.30;99.90;;;;;;4993639;28;20186;-78
2021/09/21 07:06:32;;;;;;;7.80;7.10;;;21.90;99.90;;;;;;4994047;28;20591;-76
2021/09/21 07:08:57;;;;;;;8.47;7.70;;;21.70;99.90;;;;;;4993523;28;20176;-76
2021/09/21 07:11:23;;;;;;;8.17;7.37;;;21.40;99.90;;;;;;4993561;28;20206;-77
2021/09/21 07:13:49;;;;;;;9.97;7.90;;;21.10;99.90;;;;;;4993684;28;20215;-77
2021/09/21 07:16:14;;;;;;;8.53;7.70;;;20.90;99.90;;;;;;4993750;28;20190;-78
2021/09/21 07:18:40;;;;;;;11.07;8.00;;;20.60;99.90;;;;;;4972372;28;20419;-75
2021/09/21 07:21:06;;;;;;;8.83;8.10;;;20.60;99.90;;;;;;4973911;28;20203;-76
2021/09/21 07:23:33;;;;;;;8.43;7.57;;;20.60;99.90;;;;;;4973702;28;20176;-77
2021/09/21 07:25:58;;;;;;;9.87;7.97;;;20.50;99.90;;;;;;4989165;28;20423;-76
2021/09/21 07:28:24;;;;;;;10.77;9.40;;;20.40;99.90;;;;;;4972934;28;21056;-76
2021/09/21 07:30:50;;;;;;;9.60;8.20;;;20.20;99.90;;;;;;4973149;28;20234;-76
2021/09/21 07:33:16;;;;;;;8.43;7.73;;;20.30;99.90;;;;;;4973455;28;20211;-77
2021/09/21 07:35:42;;;;;;;8.23;7.43;;;20.00;99.90;;;;;;4973930;28;20168;-77
2021/09/21 07:38:08;;;;;;;8.10;7.43;;;19.90;99.90;;;;;;4973259;28;20419;-76
2021/09/21 07:40:35;;;;;;;9.63;7.77;;;19.80;99.90;;;;;;4973645;28;20404;-76
2021/09/21 07:43:02;;;;;;;9.10;8.20;;;19.70;99.90;;;;;;4973348;28;20176;-76
2021/09/21 07:45:28;;;;;;;8.33;7.47;;;19.90;99.90;;;;;;4973665;28;20951;-77
2021/09/21 07:47:54;;;;;;;10.83;7.00;;;20.10;99.90;;;;;;4973446;28;20443;-76
2021/09/21 07:50:20;;;;;;;8.83;8.03;;;19.90;99.90;;;;;;4973351;28;20959;-76
2021/09/21 07:52:46;;;;;;;9.00;8.10;;;19.60;99.90;;;;;;4973179;28;20239;-76
2021/09/21 07:55:12;;;;;;;7.80;7.10;;;19.30;99.90;;;;;;4973445;28;20494;-75
2021/09/21 07:57:38;;;;;;;7.63;7.00;;;19.40;99.90;;;;;;4973427;28;20186;-75
2021/09/21 08:00:07;;;;;;;11.43;7.33;;;18.90;99.90;;;;;;4973189;28;20172;-76
2021/09/21 08:02:33;;;;;;;7.80;6.97;;;18.60;99.90;;;;;;4973197;28;20441;-75
2021/09/21 08:04:58;;;;;;;7.70;7.00;;;18.50;99.90;;;;;;4973239;28;21124;-75
2021/09/21 08:07:28;;;;;;;7.47;6.77;;;18.80;99.90;;;;;;4972041;28;20182;-76
2021/09/21 08:09:54;;;;;;;9.20;7.50;;;18.70;99.90;;;;;;4973098;28;20579;-76
2021/09/21 08:12:20;;;;;;;7.57;6.73;;;18.80;99.90;;;;;;4972716;28;20895;-76
2021/09/21 08:14:49;;;;;;;8.40;7.50;;;18.90;99.90;;;;;;4973072;28;20418;-76
2021/09/21 08:17:15;;;;;;;7.23;6.67;;;18.80;99.90;;;;;;4972998;28;20418;-76
2021/09/21 08:19:41;;;;;;;6.97;6.30;;;19.10;99.90;;;;;;4972973;28;20416;-76
2021/09/21 08:22:07;;;;;;;8.37;7.57;;;19.60;99.90;;;;;;4973070;28;20847;-76
2021/09/21 08:24:32;;;;;;;6.83;6.23;;;20.00;99.90;;;;;;4972860;28;20184;-75
2021/09/21 08:26:58;;;;;;;7.13;6.50;;;20.30;99.90;;;;;;4973004;28;20184;-75
2021/09/21 08:29:24;;;;;;;6.83;6.33;;;20.70;99.90;;;;;;4972593;28;20180;-76
2021/09/21 08:31:49;;;;;;;6.63;6.03;;;20.40;99.90;;;;;;4972796;28;20688;-75
2021/09/21 08:34:15;;;;;;;5.60;5.13;;;20.50;99.90;;;;;;4972610;28;20183;-75
2021/09/21 08:36:40;;;;;;;6.30;5.80;;;20.80;99.90;;;;;;4973080;28;20533;-76
2021/09/21 08:39:06;;;;;;;6.70;6.10;;;20.70;99.90;;;;;;4972297;28;20798;-75
2021/09/21 08:41:32;;;;;;;6.90;6.20;;;20.90;99.90;;;;;;4972687;28;20192;-75
2021/09/21 08:43:57;;;;;;;7.20;6.50;;;20.80;99.90;;;;;;4972671;28;20663;-76
2021/09/21 08:46:23;;;;;;;6.67;6.17;;;20.40;99.90;;;;;;4971112;28;20287;-75
2021/09/21 08:48:49;;;;;;;6.97;6.40;;;20.30;99.90;;;;;;4972355;28;20172;-75
2021/09/21 08:51:16;;;;;;;5.03;4.73;;;20.70;99.90;;;;;;4972411;28;20238;-75
2021/09/21 08:53:41;;;;;;;7.40;6.60;;;20.60;99.90;;;;;;4987267;28;20218;-76
2021/09/21 08:56:07;;;;;;;6.87;6.10;;;20.90;99.90;;;;;;4981585;28;20795;-74
2021/09/21 08:58:33;;;;;;;6.50;5.87;;;21.00;99.90;;;;;;4992113;28;20172;-75
2021/09/21 09:01:37;;;;;;;5.57;5.17;;;21.00;99.90;;;;;;4992035;28;20203;-75
2021/09/21 09:04:03;;;;;;;6.80;6.20;;;21.40;99.90;;;;;;4982413;28;20269;-76
2021/09/21 09:06:29;;;;;;;7.10;6.47;;;21.60;99.90;;;;;;4991836;28;20506;-76
2021/09/21 09:08:54;;;;;;;5.60;5.10;;;21.70;99.90;;;;;;4991389;28;20175;-76
2021/09/21 09:11:22;;;;;;;5.77;5.37;;;21.90;99.90;;;;;;4992555;28;20194;-74
2021/09/21 09:13:57;;;;;;;6.50;6.00;;;21.80;99.90;;;;;;4992063;28;20206;-78
2021/09/21 09:16:24;;;;;;;7.47;6.63;;;21.10;99.90;;;;;;4992015;28;20980;-75
2021/09/21 09:19:06;;;;;;;6.90;6.20;;;20.70;99.90;;;;;;4991651;28;20411;-75
2021/09/21 09:21:34;;;;;;;8.03;5.63;;;20.90;99.90;;;;;;4991755;28;20441;-75
2021/09/21 09:24:01;;;;;;;7.47;5.47;;;21.20;99.90;;;;;;4991623;28;20414;-75
2021/09/21 09:26:26;;;;;;;6.40;5.80;;;21.60;99.90;;;;;;4991831;28;20780;-75
2021/09/21 09:28:54;;;;;;;8.23;6.47;;;21.80;99.90;;;;;;4991580;28;20422;-75
2021/09/21 09:31:24;;;;;;;6.07;5.57;;;21.60;99.90;;;;;;4991135;28;20305;-75
2021/09/21 09:33:50;;;;;;;6.50;5.80;;;21.90;99.90;;;;;;4991385;28;20461;-74
2021/09/21 09:36:23;;;;;;;7.60;5.37;;;22.00;99.90;;;;;;4990425;28;20423;-77
2021/09/21 09:39:01;;;;;;;6.57;5.93;;;22.30;99.90;;;;;;4991751;28;20179;-72
2021/09/21 09:41:37;;;;;;;6.50;5.83;;;22.60;99.90;;;;;;4991805;28;20430;-77
2021/09/21 09:44:12;;;;;;;7.17;5.40;;;22.30;99.90;;;;;;5006735;28;20454;-76
2021/09/21 09:46:45;;;;;;;6.07;5.67;;;22.40;99.90;;;;;;4991767;28;20440;-74
2021/09/21 09:49:10;;;;;;;6.33;5.73;;;22.50;99.90;;;;;;4991377;28;20418;-77
2021/09/21 09:51:50;;;;;;;5.67;5.17;;;22.60;99.90;;;;;;4991552;28;20433;-78
2021/09/21 09:54:17;;;;;;;6.27;5.77;;;22.60;99.90;;;;;;4995215;28;20679;-78
2021/09/21 09:56:46;;;;;;;5.40;5.00;;;22.80;99.90;;;;;;4995618;28;20402;-77
2021/09/21 09:59:16;;;;;;;5.57;5.00;;;22.70;99.90;;;;;;4995046;28;20429;-78
2021/09/21 10:01:43;;;;;;;5.60;5.10;;;22.80;99.90;;;;;;5010326;28;20426;-78
2021/09/21 10:04:11;;;;;;;6.33;5.73;;;23.10;99.90;;;;;;5009822;28;20418;-78
2021/09/21 10:06:38;;;;;;;6.33;5.90;;;23.10;99.90;;;;;;4995381;28;20414;-78
2021/09/21 10:09:04;;;;;;;7.77;6.33;;;23.10;99.90;;;;;;4994778;28;20438;-77
2021/09/21 10:11:31;;;;;;;9.40;6.10;;;22.90;99.90;;;;;;4994856;28;20460;-75
2021/09/21 10:14:01;;;;;;;6.07;5.50;;;22.40;99.90;;;;;;4994818;28;20203;-75
2021/09/21 10:16:27;;;;;;;7.10;6.50;;;22.30;99.90;;;;;;4994910;28;20422;-75
2021/09/21 10:18:54;;;;;;;7.30;6.57;;;22.40;99.90;;;;;;5009558;28;20418;-76
2021/09/21 10:21:35;;;;;;;6.27;5.63;;;22.70;99.90;;;;;;5009426;28;20466;-77
2021/09/21 10:24:03;;;;;;;7.37;5.50;;;23.00;99.90;;;;;;4994464;28;20426;-76
2021/09/21 10:26:30;;;;;;;6.10;5.70;;;22.50;99.90;;;;;;5009673;28;20434;-76
2021/09/21 10:28:59;;;;;;;4.83;4.50;;;22.40;99.90;;;;;;5009294;28;20509;-75
2021/09/21 10:31:26;;;;;;;6.30;5.20;;;22.70;99.90;;;;;;5009099;28;20544;-77
2021/09/21 10:33:52;;;;;;;8.00;5.47;;;22.80;99.90;;;;;;4994177;28;20462;-76
2021/09/21 10:36:19;;;;;;;7.03;6.47;;;22.50;99.90;;;;;;5009497;28;20502;-74
2021/09/21 10:39:05;;;;;;;6.03;5.40;;;22.30;99.90;;;;;;5009294;28;20438;-75
2021/09/21 10:41:31;;;;;;;6.07;5.47;;;22.70;99.90;;;;;;5009260;28;20442;-75
2021/09/21 10:44:04;;;;;;;6.23;5.63;;;23.20;99.90;;;;;;5009102;28;20888;-75
2021/09/21 10:46:41;;;;;;;6.53;6.00;;;22.80;99.90;;;;;;4994479;28;20262;-75
2021/09/21 10:49:08;;;;;;;6.47;5.77;;;22.20;99.90;;;;;;4993879;28;20501;-74
2021/09/21 10:51:34;;;;;;;6.37;5.80;;;21.90;99.90;;;;;;4994159;28;20441;-76
2021/09/21 10:54:03;;;;;;;10.33;6.60;;;22.00;99.90;;;;;;4993556;28;20462;-75
2021/09/21 10:56:28;;;;;;;9.57;6.47;;;21.80;99.90;;;;;;4994122;28;20167;-76
2021/09/21 10:58:57;;;;;;;7.60;6.80;;;21.70;99.90;;;;;;4993688;28;20943;-75
2021/09/21 11:01:22;;;;;;;7.73;7.13;;;21.60;99.90;;;;;;4993856;28;20314;-75
2021/09/21 11:03:48;;;;;;;8.13;7.33;;;21.40;99.90;;;;;;4992143;28;20558;-75
2021/09/21 11:06:14;;;;;;;7.47;6.90;;;21.40;99.90;;;;;;4993334;28;20186;-75
2021/09/21 11:08:41;;;;;;;7.87;7.17;;;21.30;99.90;;;;;;4993430;28;20657;-75
2021/09/21 11:11:08;;;;;;;8.10;7.10;;;21.40;99.90;;;;;;4993664;28;20466;-74
2021/09/21 11:13:41;;;;;;;7.97;6.13;;;21.60;99.90;;;;;;4993360;28;20463;-76
2021/09/21 11:16:12;;;;;;;8.90;8.10;;;21.20;99.90;;;;;;4993673;28;20442;-75
2021/09/21 11:18:42;;;;;;;8.43;7.47;;;21.00;99.90;;;;;;4993359;28;21261;-75
2021/09/21 11:21:09;;;;;;;6.30;5.80;;;20.80;99.90;;;;;;4993314;28;20488;-76
2021/09/21 11:23:38;;;;;;;7.30;6.50;;;20.60;99.90;;;;;;4993240;28;20433;-75
2021/09/21 11:26:10;;;;;;;7.03;6.37;;;20.30;99.90;;;;;;4993408;28;20959;-75
2021/09/21 11:28:43;;;;;;;7.87;7.10;;;20.30;99.90;;;;;;4993370;28;20784;-75
2021/09/21 11:31:09;;;;;;;8.07;7.27;;;19.80;99.90;;;;;;4991894;28;20465;-76
2021/09/21 11:33:37;;;;;;;7.73;7.03;;;20.10;99.90;;;;;;4992818;28;20469;-75
2021/09/21 11:36:09;;;;;;;9.47;6.43;;;20.20;99.90;;;;;;4992966;28;20473;-76
2021/09/21 11:38:45;;;;;;;7.20;6.60;;;20.30;99.90;;;;;;4992740;28;20938;-75
2021/09/21 11:41:11;;;;;;;7.53;6.83;;;20.30;99.90;;;;;;4993047;28;20641;-76
2021/09/21 11:43:38;;;;;;;9.27;7.80;;;20.30;99.90;;;;;;4992835;28;21130;-74
2021/09/21 11:46:04;;;;;;;7.50;6.80;;;20.20;99.90;;;;;;4993172;28;20414;-76
2021/09/21 11:48:30;;;;;;;7.30;6.63;;;20.00;99.90;;;;;;4992619;28;20473;-75
2021/09/21 11:50:56;;;;;;;10.73;7.13;;;19.90;99.90;;;;;;4993013;28;20446;-75
2021/09/21 11:53:25;;;;;;;8.50;6.83;;;19.90;99.90;;;;;;4992552;28;20628;-75
2021/09/21 11:56:01;;;;;;;7.53;6.83;;;19.90;99.90;;;;;;4993073;28;20415;-74
2021/09/21 11:58:31;;;;;;;7.47;6.77;;;19.60;99.90;;;;;;4993018;28;20458;-74
2021/09/21 12:00:59;;;;;;;7.13;6.53;;;19.50;99.90;;;;;;4994211;28;20513;-75
2021/09/21 12:03:27;;;;;;;12.93;7.60;;;19.30;99.90;;;;;;4992424;28;20934;-75
2021/09/21 12:05:56;;;;;;;7.70;6.63;;;19.30;99.90;;;;;;4992720;28;20511;-74
2021/09/21 12:08:30;;;;;;;7.60;6.50;;;19.50;99.90;;;;;;4976075;28;20419;-74
2021/09/21 12:11:03;;;;;;;6.77;6.13;;;19.40;99.90;;;;;;4973082;28;20485;-74
2021/09/21 12:13:29;;;;;;;7.77;6.93;;;19.60;99.90;;;;;;4972677;28;20859;-76
2021/09/21 12:15:58;;;;;;;9.47;7.07;;;19.70;99.90;;;;;;4972815;28;20412;-74
2021/09/21 12:18:25;;;;;;;6.77;6.17;;;19.80;99.90;;;;;;4972794;28;20179;-75
2021/09/21 12:20:56;;;;;;;6.50;6.00;;;20.10;99.90;;;;;;4972904;28;20844;-74
2021/09/21 12:23:25;;;;;;;7.47;6.70;;;20.00;99.90;;;;;;4981272;28;20954;-75
2021/09/21 12:25:53;;;;;;;8.67;7.77;;;19.90;99.90;;;;;;4992557;28;20424;-74
2021/09/21 12:28:28;;;;;;;8.97;7.63;;;19.50;99.90;;;;;;4991961;28;20418;-75
2021/09/21 12:30:55;;;;;;;6.77;6.17;;;19.50;99.90;;;;;;4992111;28;20516;-75
2021/09/21 12:33:21;;;;;;;8.63;7.03;;;19.40;99.90;;;;;;4983134;28;20482;-74
2021/09/21 12:35:49;;;;;;;7.70;7.00;;;19.60;99.90;;;;;;4971536;28;20411;-78
2021/09/21 12:38:17;;;;;;;6.60;5.97;;;19.90;99.90;;;;;;4986200;28;20916;-77
2021/09/21 12:40:53;;;;;;;8.77;7.97;;;20.00;99.90;;;;;;4972728;28;20429;-77
2021/09/21 12:43:30;;;;;;;6.90;6.20;;;20.00;99.90;;;;;;4972070;28;20942;-76
2021/09/21 12:46:00;;;;;;;8.93;8.07;;;20.00;99.90;;;;;;4972875;28;20414;-77
2021/09/21 12:48:28;;;;;;;7.57;6.50;;;20.10;99.90;;;;;;4972603;28;20439;-78
2021/09/21 12:50:59;;;;;;;9.10;7.37;;;20.00;99.90;;;;;;4972761;28;20439;-77
2021/09/21 12:53:25;;;;;;;9.03;6.53;;;19.90;99.90;;;;;;4972421;28;20463;-78
2021/09/21 12:55:59;;;;;;;7.63;6.82;;;19.70;99.90;;;;;;4971679;28;20457;-79
2021/09/21 12:58:34;;;;;;;9.23;6.40;;;19.60;99.90;;;;;;4972785;28;20176;-78
2021/09/21 13:01:01;;;;;;;8.23;7.53;;;19.30;99.90;;;;;;4973190;28;20509;-78
2021/09/21 13:03:27;;;;;;;7.13;6.43;;;19.30;99.90;;;;;;4973352;28;20412;-78
2021/09/21 13:05:52;;;;;;;7.03;6.40;;;19.00;99.90;;;;;;4988350;28;20434;-79
2021/09/21 13:08:18;;;;;;;7.40;6.70;;;18.90;99.90;;;;;;4973273;28;20175;-79
2021/09/21 13:10:45;;;;;;;7.70;7.00;;;19.00;99.90;;;;;;4973578;28;20172;-78
2021/09/21 13:13:11;;;;;;;7.43;6.43;;;18.90;99.90;;;;;;4973551;28;20199;-79
2021/09/21 13:15:38;;;;;;;7.23;6.63;;;19.00;99.90;;;;;;4973789;28;20498;-80
2021/09/21 13:18:04;;;;;;;6.37;5.87;;;18.90;99.90;;;;;;4973346;28;20244;-79
2021/09/21 13:20:32;;;;;;;7.20;6.50;;;19.00;99.90;;;;;;4973465;28;20784;-78
2021/09/21 13:22:58;;;;;;;6.70;6.10;;;19.20;99.90;;;;;;4973642;28;20775;-79
2021/09/21 13:25:24;;;;;;;7.33;6.40;;;19.30;99.90;;;;;;4973102;28;20423;-79
2021/09/21 13:27:51;;;;;;;8.23;7.00;;;19.40;99.90;;;;;;4974842;28;20172;-79
2021/09/21 13:30:17;;;;;;;6.40;5.90;;;19.30;99.90;;;;;;4991388;28;20438;-79
2021/09/21 13:32:43;;;;;;;7.33;6.63;;;19.30;99.90;;;;;;4975876;28;20473;-79
2021/09/21 13:35:10;;;;;;;6.80;6.20;;;19.00;99.90;;;;;;4976396;28;21077;-79
2021/09/21 13:37:38;;;;;;;7.30;6.70;;;18.90;99.90;;;;;;4991692;28;20411;-79
2021/09/21 13:40:05;;;;;;;8.60;7.70;;;18.60;99.90;;;;;;4976139;28;20418;-78
2021/09/21 13:42:31;;;;;;;8.00;6.20;;;18.50;99.90;;;;;;4976191;28;20439;-79
2021/09/21 13:44:56;;;;;;;11.73;6.30;;;18.40;99.90;;;;;;4976082;28;20433;-78
2021/09/21 13:47:22;;;;;;;6.87;6.27;;;18.20;99.90;;;;;;4976015;28;20272;-78
2021/09/21 13:49:50;;;;;;;8.63;7.30;;;18.30;99.90;;;;;;4975940;28;20845;-78
2021/09/21 13:52:15;;;;;;;6.97;6.30;;;18.30;99.90;;;;;;4975852;28;20294;-79
2021/09/21 13:54:41;;;;;;;7.77;5.83;;;18.30;99.90;;;;;;4975674;28;21075;-79
2021/09/21 13:57:06;;;;;;;11.90;5.87;;;18.40;99.90;;;;;;4975917;28;20183;-80
2021/09/21 13:59:32;;;;;;;7.13;6.30;;;18.50;99.90;;;;;;4976183;28;20172;-80
2021/09/21 14:02:03;;;;;;;8.97;6.87;;;18.60;99.90;;;;;;4975981;28;20270;-79
2021/09/21 14:04:29;;;;;;;9.50;7.17;;;18.40;99.90;;;;;;4975669;28;20184;-80
2021/09/21 14:06:55;;;;;;;9.00;6.33;;;18.40;99.90;;;;;;4975945;28;20834;-78
2021/09/21 14:09:22;;;;;;;7.63;6.83;;;18.40;99.90;;;;;;4974720;28;20415;-78
2021/09/21 14:11:47;;;;;;;6.77;6.23;;;18.30;99.90;;;;;;4974578;28;20239;-78
2021/09/21 14:14:13;;;;;;;6.50;5.90;;;18.30;99.90;;;;;;4974254;28;21187;-78
2021/09/21 14:16:39;;;;;;;7.37;6.67;;;18.30;99.90;;;;;;4975178;28;20541;-79
2021/09/21 14:19:04;;;;;;;8.93;7.60;;;18.30;99.90;;;;;;4976504;28;20210;-79
2021/09/21 14:21:30;;;;;;;6.50;6.00;;;18.20;99.90;;;;;;4986101;28;20222;-78
2021/09/21 14:23:56;;;;;;;9.23;6.90;;;18.20;99.90;;;;;;4975872;28;20180;-78
2021/09/21 14:26:21;;;;;;;7.50;6.80;;;18.20;99.90;;;;;;4975408;28;20183;-77
2021/09/21 14:28:47;;;;;;;9.13;6.03;;;18.30;99.90;;;;;;4975469;28;20176;-78
2021/09/21 14:31:14;;;;;;;6.50;5.97;;;18.10;99.90;;;;;;4974942;28;20580;-78
2021/09/21 14:33:40;;;;;;;6.33;5.83;;;18.20;99.90;;;;;;4975016;28;20459;-79
2021/09/21 14:36:06;;;;;;;11.93;6.80;;;18.30;99.90;;;;;;4973797;28;20462;-78
2021/09/21 14:38:32;;;;;;;6.27;5.67;;;18.30;99.90;;;;;;4974886;28;20633;-78
2021/09/21 14:40:58;;;;;;;7.27;6.60;;;18.20;99.90;;;;;;4975718;28;20438;-78
2021/09/21 14:43:23;;;;;;;6.37;5.80;;;18.20;99.90;;;;;;4974802;28;20268;-78
2021/09/21 14:45:49;;;;;;;6.77;6.17;;;18.20;99.90;;;;;;4975643;28;20176;-79
2021/09/21 14:48:15;;;;;;;9.10;5.97;;;18.30;99.90;;;;;;4975263;28;20180;-78
2021/09/21 14:50:41;;;;;;;6.23;5.73;;;18.30;99.90;;;;;;4975361;28;20787;-79
2021/09/21 14:53:07;;;;;;;7.37;6.67;;;18.30;99.90;;;;;;4974769;28;20210;-78
2021/09/21 14:55:33;;;;;;;7.33;6.53;;;18.20;99.90;;;;;;4974774;28;20494;-78
2021/09/21 14:57:58;;;;;;;10.50;6.77;;;18.00;99.90;;;;;;4973929;28;21005;-80
2021/09/21 15:00:27;;;;;;;11.13;5.93;;;18.00;99.90;;;;;;4975257;28;20262;-79
2021/09/21 15:02:53;;;;;;;7.70;6.30;;;18.00;99.90;;;;;;4975230;28;20243;-79
2021/09/21 15:05:18;;;;;;;6.23;5.73;;;17.90;99.90;;;;;;4974808;28;20924;-80
2021/09/21 15:07:44;;;;;;;6.20;5.70;;;17.80;99.90;;;;;;4977896;28;20176;-80
2021/09/21 15:10:10;;;;;;;7.00;6.27;;;17.70;99.90;;;;;;4988880;28;20183;-79
2021/09/21 15:12:36;;;;;;;5.90;5.40;;;17.60;99.90;;;;;;4985980;28;20589;-78
2021/09/21 15:15:06;;;;;;;7.20;6.60;;;17.60;99.90;;;;;;4984913;28;20664;-78
2021/09/21 15:17:32;;;;;;;5.67;5.17;;;17.50;99.90;;;;;;4980312;28;20179;-80
2021/09/21 15:20:01;;;;;;;10.13;8.03;;;17.50;99.90;;;;;;4977746;28;20785;-79
2021/09/21 15:22:26;;;;;;;6.83;6.13;;;17.30;99.90;;;;;;4977090;28;20227;-80
2021/09/21 15:24:52;;;;;;;6.07;5.50;;;17.20;99.90;;;;;;4979983;28;20430;-79
2021/09/21 15:27:18;;;;;;;6.30;5.70;;;17.20;99.90;;;;;;4978455;28;20180;-79
2021/09/21 15:29:43;;;;;;;6.33;5.50;;;17.20;99.90;;;;;;4977691;28;20187;-80
2021/09/21 15:32:09;;;;;;;5.77;5.27;;;17.10;99.90;;;;;;4978146;28;20224;-79
2021/09/21 15:34:34;;;;;;;7.10;5.60;;;17.10;99.90;;;;;;4979213;28;20172;-80
2021/09/21 15:37:00;;;;;;;5.87;5.47;;;17.00;99.90;;;;;;4978266;28;20283;-79
2021/09/21 15:39:26;;;;;;;8.57;6.17;;;17.00;99.90;;;;;;4976031;28;20632;-80
2021/09/21 15:41:52;;;;;;;5.87;5.27;;;17.00;99.90;;;;;;4982755;28;20430;-80
2021/09/21 15:44:18;;;;;;;5.90;5.50;;;16.90;99.90;;;;;;4985348;28;20566;-79
2021/09/21 15:46:44;;;;;;;10.20;7.60;;;16.80;99.90;;;;;;4981605;28;20423;-81
2021/09/21 15:49:10;;;;;;;6.97;6.20;;;16.70;99.90;;;;;;4987065;28;20683;-79
2021/09/21 15:51:36;;;;;;;7.00;5.03;;;16.60;99.90;;;;;;4974893;28;20206;-79
2021/09/21 15:54:02;;;;;;;5.53;5.03;;;16.60;99.90;;;;;;4974914;28;20459;-79
2021/09/21 15:56:29;;;;;;;6.37;5.77;;;16.60;99.90;;;;;;4975420;28;20280;-79
2021/09/21 15:58:55;;;;;;;5.90;5.40;;;16.60;99.90;;;;;;4970770;28;20936;-74
2021/09/21 16:01:21;;;;;;;6.27;5.63;;;16.50;99.90;;;;;;4981644;28;20623;-78
2021/09/21 16:03:46;;;;;;;5.80;5.40;;;16.50;99.90;;;;;;4992490;28;20419;-77
2021/09/21 16:06:12;;;;;;;6.77;6.07;;;16.50;99.90;;;;;;4992617;28;20183;-77
2021/09/21 16:08:38;;;;;;;6.43;5.83;;;16.50;99.90;;;;;;4992946;28;20199;-78
2021/09/21 16:11:04;;;;;;;5.47;5.07;;;16.40;99.90;;;;;;4992607;28;20199;-78
2021/09/21 16:13:29;;;;;;;7.00;5.40;;;16.20;99.90;;;;;;4992881;28;20207;-78
2021/09/21 16:15:55;;;;;;;8.90;6.20;;;16.20;99.90;;;;;;4992927;28;20841;-78
2021/09/21 16:18:21;;;;;;;5.63;5.13;;;16.10;99.90;;;;;;4992228;28;20181;-77
2021/09/21 16:20:48;;;;;;;7.37;6.60;;;16.00;99.90;;;;;;4992526;28;20253;-78
2021/09/21 16:23:14;;;;;;;7.10;6.00;;;15.90;99.90;;;;;;4992123;28;20530;-78
2021/09/21 16:25:41;;;;;;;5.57;5.03;;;15.90;99.90;;;;;;4992244;28;20931;-77
2021/09/21 16:28:08;;;;;;;12.67;5.70;;;15.80;99.90;;;;;;4991835;28;20422;-77
2021/09/21 16:30:35;;;;;;;6.37;5.80;;;15.80;99.90;;;;;;4991874;28;20424;-77
2021/09/21 16:33:06;;;;;;;10.13;6.20;;;15.70;99.90;;;;;;4991997;28;20497;-77
2021/09/21 16:35:35;;;;;;;10.37;6.93;;;15.70;99.90;;;;;;4991939;28;20949;-77
2021/09/21 16:38:05;;;;;;;7.90;6.10;;;15.70;99.90;;;;;;4992014;28;20445;-76
2021/09/21 16:40:33;;;;;;;6.83;6.17;;;15.70;99.90;;;;;;5007234;28;20414;-76
2021/09/21 16:43:03;;;;;;;5.97;5.47;;;15.70;99.90;;;;;;4991773;28;20879;-77
2021/09/21 16:45:29;;;;;;;6.30;5.70;;;15.60;99.90;;;;;;4990815;28;20422;-76
2021/09/21 16:47:55;;;;;;;9.00;6.33;;;15.60;99.90;;;;;;4991616;28;20477;-76
2021/09/21 16:50:24;;;;;;;5.80;5.07;;;15.50;99.90;;;;;;4991677;28;20229;-77
2021/09/21 16:52:50;;;;;;;9.03;5.77;;;15.50;99.90;;;;;;4991646;28;20469;-76
2021/09/21 16:55:16;;;;;;;10.63;6.63;;;15.40;99.90;;;;;;4991804;28;20927;-77
2021/09/21 16:57:42;;;;;;;6.47;5.87;;;15.40;99.90;;;;;;4991967;28;20414;-77
2021/09/21 17:00:12;;;;;;;9.30;8.40;;;15.30;99.90;;;;;;4991632;28;20426;-75
2021/09/21 17:02:40;;;;;;;9.53;7.20;;;15.20;99.90;;;;;;4991053;28;20195;-77
2021/09/21 17:05:12;;;;;;;6.50;5.70;;;15.10;99.90;;;;;;4985402;28;20426;-77
2021/09/21 17:07:38;;;;;;;6.60;6.10;;;15.00;99.90;;;;;;4972686;28;20411;-76
2021/09/21 17:10:04;;;;;;;6.70;5.80;;;14.90;99.90;;;;;;4972381;28;20421;-77
2021/09/21 17:12:29;;;;;;;8.23;6.50;;;14.80;99.90;;;;;;4972290;28;20334;-77
2021/09/21 17:14:55;;;;;;;9.00;6.47;;;14.70;99.90;;;;;;4972331;28;20514;-76